Time;durP1;ratioP1;P1;durP2;ratioP2;P2;SDS_P1;SDS_P2;PMS_P1;PMS_P2;Temp;Humidity;BMP_temperature;BMP_pressure;BME280_temperature;BME280_humidity;BME280_pressure;Samples;Min_cycle;Max_cycle;Signal;HPM_P1;HPM_P2
2024/04/21 00:01:47;;;;;;;1.83;1.73;;;;;;;4.27;100.00;98372.06;5418874;26;20309;-77
2024/04/21 00:04:13;;;;;;;2.03;1.57;;;;;;;4.34;100.00;98362.22;5414991;26;20280;-78
2024/04/21 00:06:41;;;;;;;2.87;1.97;;;;;;;4.35;100.00;98359.50;5408645;26;20591;-78
2024/04/21 00:09:10;;;;;;;2.33;1.73;;;;;;;4.35;100.00;98358.69;5408017;26;20686;-78
2024/04/21 00:11:38;;;;;;;1.60;1.33;;;;;;;4.33;100.00;98361.34;5407476;26;20223;-78
2024/04/21 00:14:03;;;;;;;1.90;1.70;;;;;;;4.31;100.00;98357.97;5407367;26;20284;-78
2024/04/21 00:16:31;;;;;;;2.73;1.93;;;;;;;4.33;100.00;98355.28;5407508;26;20231;-78
2024/04/21 00:18:57;;;;;;;1.83;1.50;;;;;;;4.30;100.00;98348.41;5407718;26;20237;-78
2024/04/21 00:21:25;;;;;;;2.10;1.60;;;;;;;4.35;100.00;98349.06;5407056;26;20241;-78
2024/04/21 00:23:51;;;;;;;3.47;1.73;;;;;;;4.35;100.00;98351.66;5407401;26;20291;-78
2024/04/21 00:26:22;;;;;;;3.07;1.50;;;;;;;4.41;100.00;98359.25;5407602;26;20700;-78
2024/04/21 00:28:48;;;;;;;3.20;1.40;;;;;;;4.45;100.00;98353.00;5407077;26;20263;-78
2024/04/21 00:31:16;;;;;;;1.40;1.30;;;;;;;4.50;100.00;98343.19;5406545;26;20655;-78
2024/04/21 00:33:42;;;;;;;1.90;1.40;;;;;;;4.55;100.00;98345.63;5406230;26;20708;-78
2024/04/21 00:36:10;;;;;;;1.53;1.30;;;;;;;4.65;100.00;98341.72;5405990;26;20280;-78
2024/04/21 00:38:35;;;;;;;1.40;1.30;;;;;;;4.64;100.00;98333.00;5413480;26;20237;-77
2024/04/21 00:41:04;;;;;;;1.20;1.10;;;;;;;4.71;100.00;98326.56;5405013;26;20338;-77
2024/04/21 00:43:32;;;;;;;1.43;1.10;;;;;;;4.75;100.00;98322.91;5405729;26;20279;-77
2024/04/21 00:46:00;;;;;;;1.60;1.10;;;;;;;4.74;100.00;98318.59;5404855;26;20663;-78
2024/04/21 00:48:26;;;;;;;2.00;1.30;;;;;;;4.76;100.00;98313.31;5404794;26;20294;-77
2024/04/21 00:50:56;;;;;;;2.10;1.40;;;;;;;4.77;100.00;98315.84;5404436;26;20291;-77
2024/04/21 00:53:23;;;;;;;1.93;1.00;;;;;;;4.76;100.00;98311.53;5404974;26;20225;-77
2024/04/21 00:55:52;;;;;;;1.03;0.90;;;;;;;4.80;100.00;98310.47;5404755;26;20283;-77
2024/04/21 00:58:19;;;;;;;1.70;1.07;;;;;;;4.77;100.00;98304.53;5404790;26;20758;-78
2024/04/21 01:00:49;;;;;;;1.60;1.10;;;;;;;4.80;100.00;98305.25;5404292;26;20308;-78
2024/04/21 01:03:15;;;;;;;0.60;0.60;;;;;;;4.83;100.00;98296.41;5405020;26;20609;-78
2024/04/21 01:05:43;;;;;;;1.43;0.97;;;;;;;4.88;100.00;98303.13;5404697;26;20329;-77
2024/04/21 01:08:09;;;;;;;0.83;0.80;;;;;;;4.88;100.00;98303.13;5404476;26;20229;-77
2024/04/21 01:10:38;;;;;;;2.13;1.00;;;;;;;4.88;100.00;98292.66;5404253;26;20287;-77
2024/04/21 01:13:09;;;;;;;0.80;0.80;;;;;;;4.85;100.00;98303.28;5404615;26;20287;-77
2024/04/21 01:15:38;;;;;;;0.93;0.90;;;;;;;4.85;100.00;98298.03;5404753;26;20218;-78
2024/04/21 01:18:07;;;;;;;0.93;0.80;;;;;;;4.86;100.00;98298.88;5405424;26;20283;-77
2024/04/21 01:20:37;;;;;;;1.13;0.83;;;;;;;4.87;100.00;98300.56;5404423;26;20233;-77
2024/04/21 01:23:05;;;;;;;0.57;0.57;;;;;;;4.89;100.00;98289.13;5404394;26;20661;-77
2024/04/21 01:25:33;;;;;;;2.83;0.80;;;;;;;4.97;100.00;98281.78;5404473;26;20306;-78
2024/04/21 01:27:59;;;;;;;0.73;0.73;;;;;;;4.99;100.00;98279.94;5404704;26;20309;-78
2024/04/21 01:30:27;;;;;;;0.80;0.70;;;;;;;4.95;100.00;98274.91;5404096;26;20322;-78
2024/04/21 01:32:53;;;;;;;1.13;0.80;;;;;;;4.93;100.00;98276.72;5404330;26;20323;-78
2024/04/21 01:35:21;;;;;;;0.83;0.63;;;;;;;4.94;100.00;98268.00;5404591;26;20244;-77
2024/04/21 01:37:46;;;;;;;1.23;0.80;;;;;;;4.96;100.00;98268.75;5404189;26;20252;-78
2024/04/21 01:40:18;;;;;;;0.57;0.50;;;;;;;4.99;100.00;98264.22;5403859;26;20342;-77
2024/04/21 01:42:44;;;;;;;0.70;0.70;;;;;;;4.96;100.00;98259.13;5404289;26;20332;-77
2024/04/21 01:45:13;;;;;;;0.90;0.80;;;;;;;5.03;100.00;98259.69;5404342;26;20236;-78
2024/04/21 01:47:38;;;;;;;0.73;0.73;;;;;;;5.04;100.00;98246.53;5404099;26;20793;-78
2024/04/21 01:50:10;;;;;;;0.90;0.77;;;;;;;5.04;100.00;98236.06;5406758;26;20236;-78
2024/04/21 01:52:35;;;;;;;2.00;0.90;;;;;;;5.04;100.00;98233.44;5407723;26;20267;-77
2024/04/21 01:55:03;;;;;;;1.40;0.73;;;;;;;5.06;100.00;98225.53;5408248;26;20230;-78
2024/04/21 01:57:32;;;;;;;1.33;0.80;;;;;;;5.08;100.00;98227.13;5407939;26;20350;-77
2024/04/21 02:00:00;;;;;;;2.33;0.70;;;;;;;5.12;100.00;98228.69;5407301;26;20234;-77
2024/04/21 02:02:25;;;;;;;1.07;0.60;;;;;;;5.16;100.00;98224.16;5407988;26;20241;-78
2024/04/21 02:04:53;;;;;;;0.70;0.70;;;;;;;5.16;100.00;98222.41;5408291;26;20700;-78
2024/04/21 02:07:19;;;;;;;0.60;0.60;;;;;;;5.15;100.00;98223.34;5407946;26;20607;-77
2024/04/21 02:09:47;;;;;;;0.93;0.83;;;;;;;5.08;100.00;98224.50;5407109;26;20233;-78
2024/04/21 02:12:13;;;;;;;1.03;0.70;;;;;;;5.07;100.00;98240.31;5407232;26;20284;-78
2024/04/21 02:14:43;;;;;;;0.93;0.93;;;;;;;4.98;100.00;98233.72;5407397;26;20326;-78
2024/04/21 02:17:09;;;;;;;0.80;0.80;;;;;;;4.94;100.00;98234.78;5407483;26;20229;-78
2024/04/21 02:19:37;;;;;;;1.00;0.80;;;;;;;4.88;100.00;98240.28;5407186;26;20248;-77
2024/04/21 02:22:03;;;;;;;1.10;1.00;;;;;;;4.82;100.00;98227.47;5407534;26;20334;-78
2024/04/21 02:24:41;;;;;;;2.30;1.77;;;;;;;4.77;100.00;98226.00;5407815;26;20711;-78
2024/04/21 02:27:06;;;;;;;1.70;1.33;;;;;;;4.70;100.00;98220.16;5407873;26;20360;-78
2024/04/21 02:29:35;;;;;;;2.20;1.33;;;;;;;4.68;100.00;98222.00;5407864;26;20720;-78
2024/04/21 02:32:03;;;;;;;1.13;1.03;;;;;;;4.66;100.00;98223.84;5407491;26;20280;-78
2024/04/21 02:34:31;;;;;;;1.83;1.53;;;;;;;4.66;100.00;98210.75;5407508;26;20334;-78
2024/04/21 02:36:57;;;;;;;1.60;1.50;;;;;;;4.66;100.00;98217.75;5411881;26;20630;-77
2024/04/21 02:39:25;;;;;;;3.73;1.40;;;;;;;4.66;100.00;98218.63;5422379;26;20247;-77
2024/04/21 02:41:50;;;;;;;3.67;1.60;;;;;;;4.65;100.00;98221.28;5420797;26;20271;-78
2024/04/21 02:44:18;;;;;;;3.17;1.60;;;;;;;4.66;100.00;98229.09;5420041;26;20311;-77
2024/04/21 02:46:45;;;;;;;3.50;2.30;;;;;;;4.65;100.00;98222.13;5411589;26;20350;-78
2024/04/21 02:49:16;;;;;;;3.97;2.80;;;;;;;4.60;100.00;98229.34;5409199;26;20606;-78
2024/04/21 02:51:42;;;;;;;5.47;3.50;;;;;;;4.46;100.00;98221.25;5407851;26;20232;-78
2024/04/21 02:54:10;;;;;;;3.17;2.83;;;;;;;4.27;100.00;98216.88;5409133;26;20222;-78
2024/04/21 02:56:36;;;;;;;4.10;3.60;;;;;;;4.19;100.00;98204.13;5407858;26;20225;-78
2024/04/21 02:59:04;;;;;;;5.60;4.27;;;;;;;4.20;100.00;98204.97;5407824;26;20328;-78
2024/04/21 03:01:29;;;;;;;4.07;3.63;;;;;;;4.16;100.00;98196.41;5405714;26;20291;-77
2024/04/21 03:03:58;;;;;;;5.40;3.83;;;;;;;4.08;100.00;98195.88;5406760;26;20812;-78
2024/04/21 03:06:26;;;;;;;5.43;3.67;;;;;;;4.09;100.00;98187.13;5407028;26;20323;-77
2024/04/21 03:08:54;;;;;;;5.00;3.53;;;;;;;4.07;100.00;98186.34;5407374;26;20645;-78
2024/04/21 03:11:19;;;;;;;3.27;2.90;;;;;;;4.09;100.00;98187.13;5406219;26;20349;-78
2024/04/21 03:13:48;;;;;;;3.57;2.83;;;;;;;3.97;100.00;98179.78;5406176;26;20215;-77
2024/04/21 03:16:14;;;;;;;5.97;3.13;;;;;;;4.00;100.00;98178.81;5406642;26;20670;-78
2024/04/21 03:18:42;;;;;;;4.13;3.00;;;;;;;3.99;100.00;98175.38;5406479;26;20233;-78
2024/04/21 03:21:08;;;;;;;4.03;3.03;;;;;;;3.96;100.00;98167.63;5405834;26;20583;-77
2024/04/21 03:23:38;;;;;;;4.27;3.50;;;;;;;3.89;100.00;98171.44;5406435;26;20228;-78
2024/04/21 03:26:04;;;;;;;3.70;3.17;;;;;;;3.92;100.00;98166.06;5406244;26;20234;-78
2024/04/21 03:28:32;;;;;;;4.53;3.33;;;;;;;3.96;100.00;98164.16;5406279;26;20265;-77
2024/04/21 03:30:59;;;;;;;6.10;3.80;;;;;;;3.95;100.00;98159.84;5405829;26;20305;-78
2024/04/21 03:33:28;;;;;;;3.70;3.40;;;;;;;3.96;100.00;98165.03;5406089;26;20541;-78
2024/04/21 03:36:02;;;;;;;5.60;3.67;;;;;;;3.99;100.00;98157.06;5406247;26;20273;-77
2024/04/21 03:38:30;;;;;;;7.40;4.47;;;;;;;3.97;100.00;98158.88;5406226;26;20271;-78
2024/04/21 03:41:01;;;;;;;5.50;4.10;;;;;;;4.01;100.00;98149.13;5405734;26;20323;-77
2024/04/21 03:43:29;;;;;;;7.37;4.07;;;;;;;3.99;100.00;98157.06;5405980;26;20347;-77
2024/04/21 03:45:57;;;;;;;6.00;4.40;;;;;;;4.04;100.00;98149.84;5405857;26;20227;-77
2024/04/21 03:48:23;;;;;;;4.80;4.20;;;;;;;3.99;100.00;98146.59;5405893;26;20239;-78
2024/04/21 03:50:51;;;;;;;4.43;4.03;;;;;;;4.04;100.00;98147.22;5405442;26;20828;-77
2024/04/21 03:53:18;;;;;;;4.57;3.50;;;;;;;4.09;100.00;98145.28;5405890;26;20277;-78
2024/04/21 03:55:46;;;;;;;5.17;4.10;;;;;;;4.16;100.00;98149.31;5406071;26;20619;-77
2024/04/21 03:58:14;;;;;;;7.40;4.40;;;;;;;4.20;100.00;98150.03;5405497;26;20847;-78
2024/04/21 04:00:42;;;;;;;6.00;4.50;;;;;;;4.17;100.00;98151.00;5406002;26;20243;-78
2024/04/21 04:03:08;;;;;;;5.53;3.50;;;;;;;4.18;100.00;98139.66;5405711;26;20239;-77
2024/04/21 04:05:36;;;;;;;5.87;3.60;;;;;;;4.21;100.00;98139.50;5405887;26;20655;-77
2024/04/21 04:08:02;;;;;;;3.53;3.23;;;;;;;4.21;100.00;98143.91;5405694;26;20284;-78
2024/04/21 04:10:30;;;;;;;5.67;3.90;;;;;;;4.20;100.00;98145.66;5405212;26;20243;-77
2024/04/21 04:12:56;;;;;;;3.70;3.40;;;;;;;4.17;100.00;98134.50;5404340;26;20420;-77
2024/04/21 04:15:27;;;;;;;5.13;3.53;;;;;;;4.16;100.00;98154.53;5405477;26;20270;-77
2024/04/21 04:17:53;;;;;;;3.97;3.57;;;;;;;4.11;100.00;98146.06;5406184;26;20762;-77
2024/04/21 04:20:21;;;;;;;4.63;3.27;;;;;;;4.13;100.00;98153.84;5405299;26;20239;-78
2024/04/21 04:22:46;;;;;;;4.03;3.47;;;;;;;4.10;100.00;98141.72;5405734;26;20295;-78
2024/04/21 04:25:15;;;;;;;3.80;3.40;;;;;;;4.11;100.00;98145.22;5405793;26;20304;-78
2024/04/21 04:27:40;;;;;;;4.30;3.30;;;;;;;4.13;100.00;98136.38;5405644;26;20319;-77
2024/04/21 04:30:10;;;;;;;3.50;3.00;;;;;;;4.13;100.00;98132.91;5404924;26;20239;-77
2024/04/21 04:32:38;;;;;;;4.77;3.07;;;;;;;4.11;100.00;98135.63;5405414;26;20743;-78
2024/04/21 04:35:08;;;;;;;3.63;3.00;;;;;;;4.05;100.00;98137.63;5405009;26;20228;-78
2024/04/21 04:37:33;;;;;;;4.77;3.20;;;;;;;4.05;100.00;98137.63;5405108;26;20224;-77
2024/04/21 04:40:01;;;;;;;3.33;3.03;;;;;;;4.11;100.00;98145.22;5404792;26;20711;-77
2024/04/21 04:42:27;;;;;;;2.40;2.20;;;;;;;4.09;100.00;98147.06;5404846;26;20339;-77
2024/04/21 04:44:55;;;;;;;4.93;2.30;;;;;;;4.00;100.00;98143.06;5404875;26;20717;-78
2024/04/21 04:47:21;;;;;;;4.07;2.20;;;;;;;3.96;100.00;98151.94;5405875;26;20341;-77
2024/04/21 04:49:51;;;;;;;2.30;1.93;;;;;;;3.90;100.00;98146.97;5403675;26;20263;-77
2024/04/21 04:52:17;;;;;;;2.43;1.87;;;;;;;3.89;100.00;98144.44;5404787;26;20293;-78
2024/04/21 04:54:45;;;;;;;2.87;1.83;;;;;;;3.84;100.00;98139.41;5404488;26;20328;-78
2024/04/21 04:57:10;;;;;;;2.63;1.83;;;;;;;3.80;100.00;98145.66;5404866;26;20333;-77
2024/04/21 04:59:38;;;;;;;2.23;1.40;;;;;;;3.78;100.00;98142.28;5404472;26;20250;-77
2024/04/21 05:02:04;;;;;;;1.73;1.60;;;;;;;3.76;100.00;98148.47;5404328;26;20347;-77
2024/04/21 05:04:32;;;;;;;2.00;1.47;;;;;;;3.71;100.00;98143.44;5404457;26;20694;-77
2024/04/21 05:07:01;;;;;;;3.40;1.57;;;;;;;3.67;100.00;98149.72;5404497;26;20224;-78
2024/04/21 05:09:29;;;;;;;4.33;1.57;;;;;;;3.68;100.00;98154.00;5404304;26;20658;-77
2024/04/21 05:11:55;;;;;;;2.40;1.50;;;;;;;3.66;100.00;98155.03;5404448;26;20277;-79
2024/04/21 05:14:23;;;;;;;2.93;1.50;;;;;;;3.59;100.00;98159.63;5403746;26;20317;-77
2024/04/21 05:16:49;;;;;;;3.87;1.87;;;;;;;3.58;100.00;98155.34;5403661;26;20222;-76
2024/04/21 05:19:17;;;;;;;3.47;1.60;;;;;;;3.60;100.00;98163.13;5419494;26;20223;-76
2024/04/21 05:21:42;;;;;;;3.33;1.87;;;;;;;3.70;100.00;98165.28;5420291;26;20266;-76
2024/04/21 05:24:13;;;;;;;4.83;1.83;;;;;;;3.64;100.00;98170.75;5423819;26;20312;-76
2024/04/21 05:26:38;;;;;;;3.17;2.00;;;;;;;3.67;100.00;98168.00;5417397;26;20239;-76
2024/04/21 05:29:07;;;;;;;5.47;2.20;;;;;;;3.67;100.00;98162.78;5407452;26;20805;-76
2024/04/21 05:31:32;;;;;;;2.00;1.80;;;;;;;3.65;100.00;98164.59;5406776;26;20333;-76
2024/04/21 05:34:00;;;;;;;2.33;1.60;;;;;;;3.70;100.00;98167.88;5406958;26;20257;-76
2024/04/21 05:36:26;;;;;;;3.77;2.03;;;;;;;3.68;100.00;98161.84;5407924;26;20242;-78
2024/04/21 05:38:54;;;;;;;3.93;2.20;;;;;;;3.74;100.00;98177.28;5407934;26;20353;-78
2024/04/21 05:41:22;;;;;;;6.23;2.00;;;;;;;3.66;100.00;98171.53;5407290;26;20295;-77
2024/04/21 05:43:50;;;;;;;4.20;2.00;;;;;;;3.62;100.00;98169.94;5407009;26;20230;-76
2024/04/21 05:46:17;;;;;;;4.63;1.73;;;;;;;3.55;100.00;98176.34;5407697;26;20666;-77
2024/04/21 05:48:45;;;;;;;3.80;2.10;;;;;;;3.53;100.00;98174.69;5407328;26;20234;-77
2024/04/21 05:51:10;;;;;;;3.23;2.50;;;;;;;3.56;100.00;98178.03;5406695;26;20346;-77
2024/04/21 05:53:39;;;;;;;3.57;2.20;;;;;;;3.58;100.00;98178.84;5407429;26;20725;-78
2024/04/21 05:56:04;;;;;;;4.37;2.00;;;;;;;3.56;100.00;98177.22;5408394;26;20271;-77
2024/04/21 05:58:35;;;;;;;3.20;2.07;;;;;;;3.63;100.00;98184.75;5407032;26;20794;-76
2024/04/21 06:01:01;;;;;;;4.07;1.87;;;;;;;3.70;100.00;98183.56;5406493;26;20282;-77
2024/04/21 06:03:29;;;;;;;2.70;2.10;;;;;;;3.79;100.00;98167.50;5407074;26;20243;-78
2024/04/21 06:05:54;;;;;;;3.10;2.07;;;;;;;3.77;100.00;98171.94;5407994;26;20295;-77
2024/04/21 06:08:23;;;;;;;3.67;2.10;;;;;;;3.77;100.00;98177.16;5406754;26;20311;-76
2024/04/21 06:10:48;;;;;;;4.47;1.70;;;;;;;3.80;100.00;98170.97;5407129;26;20386;-76
2024/04/21 06:13:17;;;;;;;5.60;2.30;;;;;;;3.78;100.00;98171.03;5406847;26;20335;-77
2024/04/21 06:15:45;;;;;;;4.83;1.80;;;;;;;3.84;100.00;98176.00;5406466;26;20353;-77
2024/04/21 06:18:13;;;;;;;3.13;1.90;;;;;;;3.86;100.00;98176.78;5406592;26;20338;-76
2024/04/21 06:20:38;;;;;;;4.23;1.70;;;;;;;3.82;100.00;98175.22;5405937;26;20775;-76
2024/04/21 06:23:07;;;;;;;5.33;2.00;;;;;;;3.84;100.00;98186.44;5406388;26;20260;-76
2024/04/21 06:25:32;;;;;;;3.90;2.13;;;;;;;3.88;100.00;98179.34;5406475;26;20285;-77
2024/04/21 06:28:00;;;;;;;2.50;1.63;;;;;;;3.95;100.00;98176.41;5406799;26;20224;-77
2024/04/21 06:30:26;;;;;;;3.63;2.03;;;;;;;3.99;100.00;98179.75;5406124;26;20755;-76
2024/04/21 06:32:57;;;;;;;4.67;2.30;;;;;;;3.97;100.00;98174.56;5406507;26;20323;-76
2024/04/21 06:35:22;;;;;;;3.67;2.13;;;;;;;3.98;100.00;98175.44;5405669;26;20328;-76
2024/04/21 06:37:50;;;;;;;3.03;1.70;;;;;;;4.03;100.00;98170.84;5406238;26;20744;-75
2024/04/21 06:40:17;;;;;;;4.97;2.43;;;;;;;4.03;100.00;98169.06;5405969;26;20770;-77
2024/04/21 06:42:45;;;;;;;5.70;2.20;;;;;;;4.06;100.00;98173.31;5406384;26;20227;-79
2024/04/21 06:45:11;;;;;;;5.07;2.10;;;;;;;3.95;100.00;98165.94;5406311;26;20355;-76
2024/04/21 06:47:39;;;;;;;7.73;2.37;;;;;;;3.93;100.00;98172.16;5407261;26;20224;-77
2024/04/21 06:50:07;;;;;;;4.47;1.97;;;;;;;3.89;100.00;98166.19;5409811;26;20283;-77
2024/04/21 06:52:35;;;;;;;4.73;2.50;;;;;;;4.03;100.00;98171.69;5406907;26;20249;-77
2024/04/21 06:55:01;;;;;;;7.23;2.20;;;;;;;4.12;100.00;98171.31;5405902;26;20328;-77
2024/04/21 06:57:31;;;;;;;5.30;2.30;;;;;;;4.12;100.00;98188.75;5406531;26;20354;-77
2024/04/21 06:59:57;;;;;;;5.17;2.33;;;;;;;4.09;100.00;98181.88;5405870;26;20236;-77
2024/04/21 07:02:25;;;;;;;5.77;2.50;;;;;;;4.11;100.00;98187.06;5405204;26;20232;-77
2024/04/21 07:04:51;;;;;;;4.47;1.90;;;;;;;4.15;100.00;98196.50;5406479;26;20357;-77
2024/04/21 07:07:21;;;;;;;7.30;2.47;;;;;;;4.08;100.00;98193.25;5406629;26;20240;-77
2024/04/21 07:09:47;;;;;;;6.60;2.27;;;;;;;4.08;100.00;98188.03;5407490;26;20298;-78
2024/04/21 07:12:15;;;;;;;7.67;2.40;;;;;;;4.18;100.00;98197.19;5407138;26;20292;-77
2024/04/21 07:14:40;;;;;;;2.87;2.17;;;;;;;4.20;100.00;98197.13;5407128;26;20271;-77
2024/04/21 07:17:09;;;;;;;5.10;2.27;;;;;;;4.16;100.00;98191.16;5406181;26;20324;-76
2024/04/21 07:19:34;;;;;;;6.50;2.50;;;;;;;4.15;100.00;98186.03;5405281;26;20299;-77
2024/04/21 07:22:02;;;;;;;9.57;2.83;;;;;;;4.12;100.00;98184.38;5405767;26;20324;-76
2024/04/21 07:24:31;;;;;;;3.50;2.17;;;;;;;4.19;100.00;98185.81;5405819;26;20631;-75
2024/04/21 07:26:59;;;;;;;3.93;2.00;;;;;;;4.29;100.00;98181.88;5406321;26;20265;-77
2024/04/21 07:29:25;;;;;;;4.87;2.47;;;;;;;4.38;100.00;98183.25;5407009;26;20324;-78
2024/04/21 07:31:55;;;;;;;7.27;2.57;;;;;;;4.40;100.00;98179.63;5408855;26;20240;-77
2024/04/21 07:34:20;;;;;;;8.80;2.67;;;;;;;4.45;100.00;98182.91;5406308;26;20335;-77
2024/04/21 07:36:49;;;;;;;4.57;2.37;;;;;;;4.50;100.00;98178.31;5406912;26;20231;-77
2024/04/21 07:39:14;;;;;;;3.90;1.90;;;;;;;4.51;100.00;98168.69;5406166;26;20335;-78
2024/04/21 07:41:45;;;;;;;4.47;1.70;;;;;;;4.50;100.00;98170.47;5407478;26;20238;-78
2024/04/21 07:44:11;;;;;;;4.23;2.13;;;;;;;4.55;100.00;98175.50;5407061;26;20351;-78
2024/04/21 07:46:39;;;;;;;5.53;2.10;;;;;;;4.57;100.00;98166.66;5407454;26;20641;-78
2024/04/21 07:49:05;;;;;;;4.20;1.70;;;;;;;4.52;100.00;98163.41;5409770;26;20728;-78
2024/04/21 07:51:33;;;;;;;5.20;2.10;;;;;;;4.56;100.00;98171.97;5437332;26;20298;-78
2024/04/21 07:53:59;;;;;;;4.43;1.73;;;;;;;4.56;100.00;98172.81;5440026;26;20655;-78
2024/04/21 07:56:27;;;;;;;4.97;1.67;;;;;;;4.67;100.00;98167.97;5441048;26;20232;-77
2024/04/21 07:58:55;;;;;;;2.53;1.53;;;;;;;4.60;100.00;98169.16;5445730;26;20229;-77
2024/04/21 08:01:23;;;;;;;3.30;1.80;;;;;;;4.55;100.00;98172.88;5457059;26;20327;-77
2024/04/21 08:03:49;;;;;;;5.00;1.50;;;;;;;4.62;100.00;98169.94;5457234;26;20237;-78
2024/04/21 08:06:17;;;;;;;2.77;1.67;;;;;;;4.68;100.00;98174.88;5456430;26;20303;-76
2024/04/21 08:08:43;;;;;;;2.17;1.57;;;;;;;4.63;100.00;98176.84;5410536;26;20822;-79
2024/04/21 08:11:12;;;;;;;5.43;1.60;;;;;;;4.71;100.00;98179.97;5402591;26;20298;-77
2024/04/21 08:13:37;;;;;;;2.03;1.47;;;;;;;4.65;100.00;98185.47;5403453;26;20234;-78
2024/04/21 08:16:08;;;;;;;3.13;1.60;;;;;;;4.70;100.00;98178.28;5404328;26;20283;-77
2024/04/21 08:18:35;;;;;;;4.83;1.67;;;;;;;4.72;100.00;98189.56;5410119;26;20284;-78
2024/04/21 08:21:03;;;;;;;5.03;1.67;;;;;;;4.74;100.00;98185.09;5413029;26;20256;-80
2024/04/21 08:23:30;;;;;;;2.83;1.90;;;;;;;4.79;100.00;98188.34;5403847;26;20241;-78
2024/04/21 08:26:00;;;;;;;5.63;1.93;;;;;;;4.82;100.00;98171.66;5401515;26;20618;-77
2024/04/21 08:28:25;;;;;;;3.70;1.90;;;;;;;4.82;100.00;98166.41;5403003;26;20915;-77
2024/04/21 08:30:53;;;;;;;4.13;1.37;;;;;;;4.78;100.00;98165.72;5403950;26;20286;-80
2024/04/21 08:33:22;;;;;;;3.77;1.43;;;;;;;4.88;100.00;98172.19;5403401;26;20290;-78
2024/04/21 08:35:54;;;;;;;4.20;1.60;;;;;;;4.89;98.76;98147.72;5405553;26;20229;-80
2024/04/21 08:38:20;;;;;;;4.07;1.63;;;;;;;5.06;98.57;98146.94;5407869;26;20278;-79
2024/04/21 08:40:51;;;;;;;4.40;1.27;;;;;;;5.15;98.57;98149.97;5405281;26;20608;-78
2024/04/21 08:43:21;;;;;;;3.33;1.33;;;;;;;5.24;97.65;98154.75;5412329;26;20224;-78
2024/04/21 08:45:52;;;;;;;2.67;1.60;;;;;;;5.26;98.73;98173.88;5441708;26;20232;-77
2024/04/21 08:48:18;;;;;;;3.23;1.20;;;;;;;5.25;97.28;98156.47;5439829;26;20287;-77
2024/04/21 08:50:50;;;;;;;1.73;1.20;;;;;;;5.32;97.00;98160.47;5439413;26;20276;-77
2024/04/21 08:53:16;;;;;;;3.77;1.40;;;;;;;5.32;94.60;98152.63;5439998;26;20283;-77
2024/04/21 08:55:51;;;;;;;3.53;1.30;;;;;;;5.29;90.55;98129.19;5440573;26;20274;-78
2024/04/21 08:58:18;;;;;;;3.00;1.20;;;;;;;5.39;91.93;98143.56;5439680;26;20649;-77
2024/04/21 09:00:48;;;;;;;2.40;1.20;;;;;;;5.62;94.33;98155.53;5439673;26;20286;-77
2024/04/21 09:03:14;;;;;;;2.77;1.27;;;;;;;5.88;93.84;98153.38;5439746;26;20224;-77
2024/04/21 09:05:43;;;;;;;2.80;1.10;;;;;;;6.19;93.98;98155.25;5440001;26;20267;-77
2024/04/21 09:08:11;;;;;;;3.00;1.60;;;;;;;6.43;89.59;98128.59;5439821;26;20292;-77
2024/04/21 09:10:40;;;;;;;2.20;1.50;;;;;;;6.40;87.73;98110.38;5438823;26;20283;-77
2024/04/21 09:13:08;;;;;;;1.83;1.60;;;;;;;6.41;89.41;98122.56;5440172;26;20580;-79
2024/04/21 09:15:38;;;;;;;4.03;1.20;;;;;;;6.33;88.01;98114.25;5440371;26;20232;-78
2024/04/21 09:18:04;;;;;;;2.93;1.40;;;;;;;6.28;89.43;98129.38;5441098;26;20319;-78
2024/04/21 09:20:33;;;;;;;3.77;1.30;;;;;;;6.19;86.73;98119.38;5438619;26;20307;-77
2024/04/21 09:23:00;;;;;;;3.20;1.35;;;;;;;6.19;86.68;98111.50;5439054;26;20485;-79
2024/04/21 09:25:30;;;;;;;3.93;1.50;;;;;;;6.14;84.74;98103.03;5440340;25;20252;-80
2024/04/21 09:27:56;;;;;;;3.50;1.43;;;;;;;6.28;86.28;98113.66;5438807;26;20283;-77
2024/04/21 09:30:24;;;;;;;1.77;1.27;;;;;;;6.41;86.23;98117.31;5438074;26;20814;-77
2024/04/21 09:32:50;;;;;;;6.70;1.13;;;;;;;6.61;86.85;98125.00;5438105;26;20308;-77
2024/04/21 09:35:20;;;;;;;2.30;1.30;;;;;;;6.74;85.59;98118.16;5428697;26;20295;-78
2024/04/21 09:37:45;;;;;;;3.50;1.53;;;;;;;6.70;83.53;98103.47;5413957;26;20611;-77
2024/04/21 09:40:14;;;;;;;3.03;1.30;;;;;;;6.64;83.64;98113.47;5432798;26;20344;-77
2024/04/21 09:42:45;;;;;;;3.37;1.50;;;;;;;6.56;82.94;98110.41;5415390;26;20338;-77
2024/04/21 09:45:14;;;;;;;1.77;1.10;;;;;;;6.42;83.45;98111.13;5396721;26;20318;-77
2024/04/21 09:47:42;;;;;;;5.13;1.30;;;;;;;6.38;83.51;98107.00;5398312;26;20226;-76
2024/04/21 09:50:11;;;;;;;3.23;1.40;;;;;;;6.38;85.75;98121.88;5396766;26;20341;-77
2024/04/21 09:52:37;;;;;;;2.63;1.33;;;;;;;6.53;82.16;98100.09;5395630;26;20226;-78
2024/04/21 09:55:06;;;;;;;5.73;1.40;;;;;;;6.45;81.13;98110.13;5394786;26;20237;-78
2024/04/21 09:57:32;;;;;;;3.33;1.67;;;;;;;6.46;82.10;98120.56;5433781;26;20287;-78
2024/04/21 10:00:05;;;;;;;8.07;1.37;;;;;;;6.66;81.12;98117.69;5430091;26;20284;-78
2024/04/21 10:02:36;;;;;;;3.90;1.23;;;;;;;6.91;76.92;98081.28;5433349;26;20281;-78
2024/04/21 10:05:07;;;;;;;3.67;1.33;;;;;;;7.11;73.88;98067.91;5434357;26;20282;-78
2024/04/21 10:07:36;;;;;;;4.23;1.20;;;;;;;7.24;74.03;98074.16;5439001;26;20224;-78
2024/04/21 10:10:10;;;;;;;2.80;1.03;;;;;;;7.40;72.22;98069.69;5440716;26;20240;-79
2024/04/21 10:12:37;;;;;;;5.80;1.53;;;;;;;7.70;76.88;98097.72;5445562;26;20309;-79
2024/04/21 10:15:09;;;;;;;1.20;1.10;;;;;;;7.98;70.31;98055.69;5443304;26;20230;-78
2024/04/21 10:17:35;;;;;;;2.47;1.30;;;;;;;8.25;70.57;98055.81;5442848;26;20264;-80
2024/04/21 10:20:05;;;;;;;1.73;1.03;;;;;;;8.12;68.13;98039.03;5416741;26;20297;-77
2024/04/21 10:22:31;;;;;;;3.77;1.17;;;;;;;7.90;66.60;98033.41;5405078;26;20229;-77
2024/04/21 10:24:59;;;;;;;4.20;1.30;;;;;;;7.77;67.57;98040.34;5403215;26;20641;-77
2024/04/21 10:27:25;;;;;;;3.90;1.17;;;;;;;7.59;69.95;98065.09;5404937;26;20362;-77
2024/04/21 10:29:53;;;;;;;4.47;1.40;;;;;;;7.50;71.51;98081.38;5405081;26;20744;-77
2024/04/21 10:32:27;;;;;;;2.00;1.10;;;;;;;7.47;71.73;98077.16;5405081;26;20317;-76
2024/04/21 10:34:58;;;;;;;2.13;1.13;;;;;;;7.32;69.02;98047.44;5418342;26;20235;-79
2024/04/21 10:37:25;;;;;;;4.27;1.30;;;;;;;7.26;70.42;98067.00;5459959;26;20220;-76
2024/04/21 10:39:53;;;;;;;1.77;0.93;;;;;;;7.26;68.08;98042.53;5453830;26;20287;-76
2024/04/21 10:42:18;;;;;;;3.17;1.37;;;;;;;7.62;67.69;98046.50;5452189;26;20321;-77
2024/04/21 10:44:47;;;;;;;2.00;0.93;;;;;;;7.79;63.74;97999.81;5442338;26;20652;-77
2024/04/21 10:47:12;;;;;;;2.00;0.80;;;;;;;8.09;63.82;98012.91;5441791;26;20281;-77
2024/04/21 10:49:43;;;;;;;1.83;1.10;;;;;;;8.12;62.76;98002.19;5441616;26;20342;-77
2024/04/21 10:52:09;;;;;;;1.90;1.20;;;;;;;8.10;63.76;98019.88;5441552;26;20233;-77
2024/04/21 10:54:38;;;;;;;1.53;1.00;;;;;;;8.13;63.26;98009.13;5442214;26;20224;-78
2024/04/21 10:57:04;;;;;;;2.20;1.00;;;;;;;8.09;62.86;98002.41;5442318;26;20269;-77
2024/04/21 10:59:33;;;;;;;1.50;0.97;;;;;;;8.06;62.52;98011.31;5443956;26;20428;-78
2024/04/21 11:01:58;;;;;;;2.63;1.07;;;;;;;8.00;62.38;98009.06;5447068;26;20226;-79
2024/04/21 11:04:27;;;;;;;3.00;1.60;;;;;;;8.06;65.08;98034.16;5446667;26;20658;-78
2024/04/21 11:06:55;;;;;;;1.77;1.10;;;;;;;8.18;65.39;98038.66;5447881;26;20220;-80
2024/04/21 11:09:23;;;;;;;2.47;1.30;;;;;;;8.15;63.70;98012.53;5447203;26;20230;-79
2024/04/21 11:11:49;;;;;;;2.43;1.30;;;;;;;8.35;65.05;98041.16;5444576;26;20607;-78
2024/04/21 11:14:18;;;;;;;2.13;1.20;;;;;;;8.44;63.33;98028.25;5443784;26;20326;-80
2024/04/21 11:16:50;;;;;;;2.73;1.20;;;;;;;8.68;65.64;98045.16;5453425;26;20265;-80
2024/04/21 11:19:18;;;;;;;4.00;1.30;;;;;;;8.54;62.45;98010.94;5449014;26;20299;-80
2024/04/21 11:21:44;;;;;;;2.03;1.30;;;;;;;8.53;61.00;97990.81;5449846;26;20273;-79
2024/04/21 11:24:15;;;;;;;2.40;1.20;;;;;;;8.67;59.23;98005.72;5455343;26;20300;-80
2024/04/21 11:26:41;;;;;;;4.13;0.90;;;;;;;8.78;57.31;97984.81;5455133;26;20234;-79
2024/04/21 11:29:09;;;;;;;2.10;1.00;;;;;;;8.90;58.13;98039.38;5453014;26;20275;-79
2024/04/21 11:31:35;;;;;;;4.30;1.10;;;;;;;9.00;58.26;98045.75;5450881;26;20307;-80
2024/04/21 11:34:04;;;;;;;3.47;1.30;;;;;;;8.94;56.79;98025.06;5446486;25;20247;-80
2024/04/21 11:36:30;;;;;;;4.00;1.00;;;;;;;8.86;58.79;98053.69;5453592;26;20235;-81
2024/04/21 11:38:59;;;;;;;2.10;1.00;;;;;;;8.91;59.00;98054.25;5448463;26;20228;-78